Ilco Landing Area, ME

3:23 AM EDT on July 28, 2014 (GMT -0400)
Northern Maine Regional At Presque Isle (KPQI) Elev 479 ft | 46.69 °N, 68.04 °W | Change Station

Current weather conditions updated 8 minutes ago

Overcast
Overcast
64 °F
Feels Like 64 °F
N
5
Wind Variable Wind from South

Today is forecast to be Much Cooler than yesterday. Thunderstorms developing in the afternoon.

Today
High -- | Low -- °F
--% Chance of Precip.
Yesterday
High -- | Low -- °F
Precip. -- in
5:13 AM 8:14 PM
New Moon, 2% visible
Pressure 29.68 in
Visibility 10.0 miles
Clouds Overcast 1500 ft
Dew Point 59 °F
Humidity 83%
Rainfall 0.00 in
Snow Depth Not available.
UV 0 out of 12
Pollen 3.10 out of 12
Ozone Good
PM2.5 Good
Flu Activity Not available.
METAR KPQI 280715Z AUTO 17004KT 10SM OVC015 18/15 A2968 RMK AO1

More Conditions Fewer Conditions

Pressure 29.68 in
Visibility 10.0 miles
Clouds Overcast 1500 ft
Dew Point 59 °F
Humidity 83%
Rainfall 0.00 in
Snow Depth Not available.
UV 0 out of 12
Pollen 3.10 out of 12
Ozone Good
PM2.5 Good
Flu Activity Not available.
METAR KPQI 280715Z AUTO 17004KT 10SM OVC015 18/15 A2968 RMK AO1

More Conditions Fewer Conditions

10-Day Weather Forecast

Almanac

Astronomy

Jul. 28, 2014 Rise Set
Actual Time 5:13 AM EDT 8:14 PM EDT
Civil Twilight 4:38 AM EDT 8:50 PM EDT
Nautical Twilight 3:52 AM EDT 9:35 PM EDT
Astronomical Twilight 2:56 AM EDT 10:31 PM EDT
Moon 7:01 AM EDT 8:43 PM EDT
Length of Visible Light 16h 12m
Length of Day
15h 00m
Tomorrow will be 2m 26s shorter.
New Moon, 2% of the Moon is Illuminated
Today
New Moon
Aug 3
First Quarter
Aug 10
Full
Aug 17
Last Quarter
Aug 25
New

Today's Extremes

State Highs State Lows

Community

WunderPhotos

Upload Photos

1,738,292 photos uploaded!

Nearby

Air Quality

  Air Quality AQ Index Pollutant
Yesterday Good
PM2.5
Yesterday Good
OZONE
Current Good
OZONE
Current Good
PM2.5
Monday Good
OZONE
Monday Good
PM2.5
Tuesday Good
OZONE
Tuesday Good
PM2.5

Snow Depth

Station Depth Elevation
No new snow has been reported.

Earthquake Activity

City Distance Mag. Time & Date
No recent earthquake activity has been reported nearby.
Minimum magnitude displayed is 2.5.

Coastal Water Temperatures

Place Temperature
No Stations Reporting

Nearby Weather Stations

There are no personal weather stations in this area.